createdAt,value
2022-12-05T00:01:36.437Z,6.82
2022-12-05T00:03:38.124Z,6.90
2022-12-05T00:05:40.962Z,6.75
2022-12-05T00:07:42.696Z,6.53
2022-12-05T00:09:44.447Z,7.20
2022-12-05T00:11:46.301Z,7.13
2022-12-05T00:13:48.795Z,7.45
2022-12-05T00:15:50.524Z,8.27
2022-12-05T00:17:52.197Z,8.38
2022-12-05T00:19:56.877Z,7.68
2022-12-05T00:21:58.880Z,7.18
2022-12-05T00:24:01.828Z,7.65
2022-12-05T00:26:04.921Z,7.10
2022-12-05T00:28:06.551Z,7.07
2022-12-05T00:30:08.609Z,6.47
2022-12-05T00:32:10.329Z,6.43
2022-12-05T00:34:12.007Z,7.00
2022-12-05T00:36:16.304Z,7.40
2022-12-05T00:38:17.951Z,6.72
2022-12-05T00:40:19.835Z,6.75
2022-12-05T00:42:21.499Z,6.82
2022-12-05T00:44:23.146Z,7.53
2022-12-05T00:46:27.323Z,7.47
2022-12-05T00:48:29.580Z,6.80
2022-12-05T00:50:31.322Z,7.22
2022-12-05T00:52:32.980Z,6.53
2022-12-05T00:54:34.748Z,7.05
2022-12-05T00:56:36.794Z,7.40
2022-12-05T00:58:39.008Z,6.70
2022-12-05T01:00:40.708Z,7.18
2022-12-05T01:02:42.440Z,6.72
2022-12-05T01:04:44.134Z,7.65
2022-12-05T01:06:46.163Z,7.03
2022-12-05T01:08:48.045Z,8.48
2022-12-05T01:10:54.845Z,6.95
2022-12-05T01:12:56.653Z,6.80
2022-12-05T01:14:58.206Z,7.78
2022-12-05T01:16:59.925Z,7.22
2022-12-05T01:19:05.015Z,8.25
2022-12-05T01:21:06.990Z,7.55
2022-12-05T01:23:09.397Z,8.43
2022-12-05T01:25:10.985Z,8.15
2022-12-05T01:27:12.702Z,7.72
2022-12-05T01:29:16.795Z,7.10
2022-12-05T01:31:29.374Z,7.57
2022-12-05T01:33:31.158Z,6.88
2022-12-05T01:35:33.918Z,7.20
2022-12-05T01:37:35.745Z,7.28
2022-12-05T01:39:37.280Z,7.40
2022-12-05T01:41:45.520Z,7.20
2022-12-05T01:43:58.313Z,7.47
2022-12-05T01:46:00.113Z,7.65
2022-12-05T01:48:05.821Z,6.63
2022-12-05T01:50:08.231Z,6.97
2022-12-05T01:52:15.816Z,6.85
2022-12-05T01:54:18.888Z,7.63
2022-12-05T01:56:20.789Z,7.75
2022-12-05T01:58:25.208Z,7.20
2022-12-05T02:00:26.868Z,7.50
2022-12-05T02:02:29.944Z,7.63
2022-12-05T02:04:36.704Z,7.20
2022-12-05T02:06:38.411Z,7.07
2022-12-05T02:08:40.678Z,6.78
2022-12-05T02:10:54.216Z,7.32
2022-12-05T02:13:02.997Z,8.25
2022-12-05T02:15:10.606Z,7.55
2022-12-05T02:17:31.654Z,7.40
2022-12-05T02:20:12.766Z,8.13
2022-12-05T02:22:33.201Z,7.57
2022-12-05T02:25:07.795Z,7.60
2022-12-05T02:27:49.518Z,7.90
2022-12-05T02:30:00.651Z,7.70
2022-12-05T02:32:16.688Z,7.65
2022-12-05T02:34:31.287Z,7.90
2022-12-05T02:36:41.538Z,8.98
2022-12-05T02:39:11.881Z,8.00
2022-12-05T02:41:37.513Z,7.82
2022-12-05T02:43:45.151Z,7.45
2022-12-05T02:45:51.266Z,7.18
2022-12-05T02:47:54.803Z,7.18
2022-12-05T02:49:57.005Z,7.72
2022-12-05T02:52:00.277Z,7.35
2022-12-05T02:54:06.471Z,7.28
2022-12-05T02:56:08.320Z,7.03
2022-12-05T02:58:15.071Z,7.47
2022-12-05T03:00:17.121Z,7.03
2022-12-05T03:02:31.925Z,7.70
2022-12-05T03:04:33.602Z,7.22
2022-12-05T03:06:39.974Z,7.57
2022-12-05T03:09:12.041Z,7.70
2022-12-05T03:11:13.858Z,7.18
2022-12-05T03:13:20.676Z,7.00
2022-12-05T03:15:28.354Z,7.55
2022-12-05T03:17:33.359Z,7.13
2022-12-05T03:19:34.965Z,7.00
2022-12-05T03:21:47.857Z,7.18
2022-12-05T03:23:57.107Z,7.57
2022-12-05T03:26:25.064Z,7.55
2022-12-05T03:28:31.031Z,7.90
2022-12-05T03:30:36.239Z,8.32
2022-12-05T03:33:09.992Z,7.75
2022-12-05T03:35:49.856Z,7.53
2022-12-05T03:37:58.434Z,8.05
2022-12-05T03:40:09.087Z,8.40
2022-12-05T03:42:15.742Z,8.45
2022-12-05T03:44:35.687Z,8.02
2022-12-05T03:46:43.164Z,8.38
2022-12-05T03:48:56.018Z,8.63
2022-12-05T03:50:58.605Z,7.72
2022-12-05T03:53:20.608Z,8.18
2022-12-05T03:55:23.831Z,7.60
2022-12-05T03:57:29.543Z,7.70
2022-12-05T03:59:46.428Z,8.70
2022-12-05T04:01:48.880Z,8.07
2022-12-05T04:03:55.247Z,9.35
2022-12-05T04:05:59.784Z,7.45
2022-12-05T04:08:16.710Z,8.40
2022-12-05T04:10:25.315Z,8.25
2022-12-05T04:12:29.798Z,8.43
2022-12-05T04:14:44.597Z,7.70
2022-12-05T04:17:03.482Z,7.60
2022-12-05T04:19:05.104Z,7.30
2022-12-05T04:21:25.244Z,7.38
2022-12-05T04:23:27.954Z,8.40
2022-12-05T04:25:40.631Z,7.72
2022-12-05T04:27:51.503Z,8.40
2022-12-05T04:30:04.918Z,7.32
2022-12-05T04:32:08.826Z,8.50
2022-12-05T04:36:16.893Z,6.80
2022-12-05T04:38:28.622Z,8.55
2022-12-05T04:40:35.726Z,8.38
2022-12-05T04:42:39.084Z,7.88
2022-12-05T04:44:44.929Z,8.25
2022-12-05T04:46:47.211Z,7.70
2022-12-05T04:49:01.106Z,8.15
2022-12-05T04:51:04.459Z,8.50
2022-12-05T04:53:06.908Z,8.43
2022-12-05T04:55:25.789Z,7.57
2022-12-05T04:57:37.701Z,7.78
2022-12-05T04:59:39.282Z,8.32
2022-12-05T05:01:53.528Z,7.65
2022-12-05T05:05:58.722Z,8.38
2022-12-05T05:08:00.428Z,8.30
2022-12-05T05:10:02.131Z,7.97
2022-12-05T05:12:04.400Z,8.15
2022-12-05T05:14:06.119Z,7.40
2022-12-05T05:16:08.472Z,8.32
2022-12-05T05:18:10.240Z,8.45
2022-12-05T05:20:23.974Z,7.22
2022-12-05T05:22:25.590Z,7.90
2022-12-05T05:24:27.196Z,7.55
2022-12-05T05:26:29.991Z,7.57
2022-12-05T05:28:31.632Z,7.43
2022-12-05T05:30:33.296Z,8.43
2022-12-05T05:32:35.438Z,8.13
2022-12-05T05:34:37.222Z,7.85
2022-12-05T05:36:39.362Z,8.05
2022-12-05T05:38:49.699Z,7.78
2022-12-05T05:40:51.286Z,7.60
2022-12-05T05:42:52.943Z,8.07
2022-12-05T05:44:54.709Z,7.93
2022-12-05T05:46:56.403Z,8.40
2022-12-05T05:48:58.275Z,7.70
2022-12-05T05:51:01.205Z,8.15
2022-12-05T05:53:02.819Z,8.52
2022-12-05T05:55:05.690Z,7.68
2022-12-05T05:57:07.624Z,7.65
2022-12-05T05:59:09.737Z,7.47
2022-12-05T06:01:12.802Z,7.75
2022-12-05T06:03:14.864Z,7.22
2022-12-05T06:05:16.541Z,6.95
2022-12-05T06:07:18.097Z,7.93
2022-12-05T06:09:20.328Z,7.40
2022-12-05T06:11:26.134Z,7.82
2022-12-05T06:13:28.073Z,7.88
2022-12-05T06:15:29.778Z,7.28
2022-12-05T06:17:31.427Z,7.63
2022-12-05T06:19:33.096Z,8.43
2022-12-05T06:21:35.001Z,8.18
2022-12-05T06:23:37.853Z,8.32
2022-12-05T06:25:39.447Z,8.00
2022-12-05T06:27:41.161Z,7.43
2022-12-05T06:29:42.844Z,8.38
2022-12-05T06:31:44.440Z,6.95
2022-12-05T06:33:46.208Z,7.53
2022-12-05T06:35:48.046Z,7.45
2022-12-05T06:37:49.658Z,7.57
2022-12-05T06:39:52.262Z,7.78
2022-12-05T06:41:53.848Z,7.30
2022-12-05T06:44:01.500Z,7.13
2022-12-05T06:46:08.572Z,7.38
2022-12-05T06:48:10.218Z,7.65
2022-12-05T06:50:12.039Z,6.97
2022-12-05T06:52:13.598Z,7.28
2022-12-05T06:54:15.196Z,7.68
2022-12-05T06:56:19.752Z,7.10
2022-12-05T06:58:21.462Z,7.20
2022-12-05T07:00:41.721Z,7.43
2022-12-05T07:02:43.649Z,7.25
2022-12-05T07:04:45.604Z,7.65
2022-12-05T07:06:51.149Z,7.28
2022-12-05T07:08:53.017Z,7.78
2022-12-05T07:10:54.687Z,7.53
2022-12-05T07:12:56.602Z,7.78
2022-12-05T07:14:58.282Z,7.47
2022-12-05T07:17:00.203Z,7.68
2022-12-05T07:19:03.496Z,7.13
2022-12-05T07:21:12.260Z,6.70
2022-12-05T07:23:14.691Z,7.60
2022-12-05T07:25:16.988Z,7.43
2022-12-05T07:27:25.072Z,8.68
2022-12-05T07:29:28.820Z,8.80
2022-12-05T07:31:30.559Z,8.73
2022-12-05T07:33:32.526Z,8.30
2022-12-05T07:35:34.217Z,8.63
2022-12-05T07:37:35.803Z,8.70
2022-12-05T07:39:37.472Z,8.50
2022-12-05T07:41:39.201Z,8.55
2022-12-05T07:43:42.075Z,8.23
2022-12-05T07:45:43.802Z,8.02
2022-12-05T07:47:45.566Z,7.80
2022-12-05T07:49:47.195Z,9.10
2022-12-05T07:51:48.883Z,8.23
2022-12-05T07:53:50.643Z,7.65
2022-12-05T07:55:52.200Z,8.95
2022-12-05T07:57:53.906Z,8.23
2022-12-05T07:59:55.730Z,8.93
2022-12-05T08:01:57.597Z,9.38
2022-12-05T08:04:00.009Z,9.73
2022-12-05T08:06:03.659Z,9.90
2022-12-05T08:08:05.766Z,8.85
2022-12-05T08:10:08.293Z,10.55
2022-12-05T08:12:09.934Z,9.73
2022-12-05T08:14:11.994Z,8.52
2022-12-05T08:16:16.335Z,9.15
2022-12-05T08:18:18.794Z,9.27
2022-12-05T08:20:22.551Z,9.25
2022-12-05T08:22:24.192Z,8.85
2022-12-05T08:24:25.928Z,8.57
2022-12-05T08:26:29.889Z,8.35
2022-12-05T08:30:33.984Z,7.90
2022-12-05T08:32:35.730Z,7.38
2022-12-05T08:34:37.384Z,7.50
2022-12-05T08:36:39.131Z,8.52
2022-12-05T08:38:41.566Z,8.10
2022-12-05T08:40:43.192Z,8.63
2022-12-05T08:42:45.068Z,8.13
2022-12-05T08:44:46.748Z,8.77
2022-12-05T08:46:50.204Z,8.63
2022-12-05T08:48:52.045Z,8.23
2022-12-05T08:50:53.929Z,7.55
2022-12-05T08:52:55.484Z,8.18
2022-12-05T08:54:57.424Z,7.65
2022-12-05T08:56:59.791Z,7.97
2022-12-05T08:59:06.165Z,8.85
2022-12-05T09:01:12.283Z,7.78
2022-12-05T09:03:13.915Z,7.57
2022-12-05T09:05:27.630Z,7.63
2022-12-05T09:07:30.715Z,5.72
2022-12-05T09:09:33.715Z,6.63
2022-12-05T09:11:38.209Z,6.87
2022-12-05T09:13:40.130Z,6.05
2022-12-05T09:15:41.768Z,5.68
2022-12-05T09:17:43.921Z,5.60
2022-12-05T09:19:46.557Z,4.93
2022-12-05T09:21:48.220Z,5.05
2022-12-05T09:23:50.696Z,5.18
2022-12-05T09:26:01.581Z,5.25
2022-12-05T09:28:03.381Z,5.38
2022-12-05T09:30:08.054Z,4.63
2022-12-05T09:32:10.335Z,4.95
2022-12-05T09:34:14.143Z,5.32
2022-12-05T09:38:19.041Z,5.00
2022-12-05T09:40:20.891Z,5.60
2022-12-05T09:42:30.375Z,5.55
2022-12-05T09:45:00.127Z,5.38
2022-12-05T09:47:12.346Z,5.03
2022-12-05T09:49:13.960Z,5.47
2022-12-05T09:51:15.886Z,5.60
2022-12-05T09:53:30.803Z,4.97
2022-12-05T09:55:55.514Z,5.43
2022-12-05T10:00:00.984Z,5.75
2022-12-05T10:02:17.967Z,5.45
2022-12-05T10:04:31.785Z,5.70
2022-12-05T10:06:57.212Z,5.97
2022-12-05T10:08:59.002Z,5.50
2022-12-05T10:11:03.878Z,5.95
2022-12-05T10:13:31.718Z,6.25
2022-12-05T10:15:39.235Z,6.07
2022-12-05T10:18:10.131Z,7.63
2022-12-05T10:20:16.531Z,5.63
2022-12-05T10:22:44.300Z,6.38
2022-12-05T10:24:52.256Z,7.20
2022-12-05T10:27:00.613Z,6.20
2022-12-05T10:29:17.324Z,5.85
2022-12-05T10:31:24.661Z,6.53
2022-12-05T10:33:29.354Z,7.13
2022-12-05T10:35:37.399Z,7.03
2022-12-05T10:37:39.088Z,6.53
2022-12-05T10:39:40.904Z,6.85
2022-12-05T10:41:42.556Z,7.03
2022-12-05T10:43:45.582Z,44.90
2022-12-05T10:45:48.064Z,8.38
2022-12-05T10:47:53.704Z,7.43
2022-12-05T10:49:58.879Z,7.65
2022-12-05T10:52:00.915Z,6.80
2022-12-05T10:54:03.166Z,6.90
2022-12-05T10:56:37.380Z,7.38
2022-12-05T10:58:39.007Z,8.52
2022-12-05T11:00:46.636Z,6.95
2022-12-05T11:02:49.139Z,6.82
2022-12-05T11:04:50.968Z,6.90
2022-12-05T11:06:56.049Z,7.30
2022-12-05T11:09:05.079Z,7.28
2022-12-05T11:11:21.393Z,7.50
2022-12-05T11:13:26.301Z,7.88
2022-12-05T11:15:30.261Z,7.55
2022-12-05T11:17:40.025Z,6.80
2022-12-05T11:19:41.718Z,6.40
2022-12-05T11:21:43.970Z,5.40
2022-12-05T11:23:45.937Z,7.15
2022-12-05T11:25:47.549Z,8.30
2022-12-05T11:27:49.114Z,6.85
2022-12-05T11:29:58.851Z,6.97
2022-12-05T11:32:01.222Z,6.90
2022-12-05T11:34:21.362Z,6.55
2022-12-05T11:36:24.485Z,7.10
2022-12-05T11:38:28.248Z,8.52
2022-12-05T11:40:51.809Z,7.95
2022-12-05T11:43:40.035Z,7.85
2022-12-05T11:45:56.849Z,8.02
2022-12-05T11:48:26.255Z,7.85
2022-12-05T11:50:42.255Z,7.22
2022-12-05T11:53:12.719Z,8.38
2022-12-05T11:55:23.016Z,8.05
2022-12-05T11:57:52.947Z,7.15
2022-12-05T12:00:33.401Z,8.95
2022-12-05T12:02:37.681Z,8.75
2022-12-05T12:04:47.707Z,7.63
2022-12-05T12:06:57.327Z,8.27
2022-12-05T12:09:17.533Z,7.93
2022-12-05T12:11:19.141Z,7.40
2022-12-05T12:13:58.551Z,7.57
2022-12-05T12:16:12.657Z,6.70
2022-12-05T12:19:05.115Z,7.20
2022-12-05T12:21:17.882Z,6.82
2022-12-05T12:23:56.301Z,8.15
2022-12-05T12:26:10.040Z,7.65
2022-12-05T12:28:46.383Z,6.93
2022-12-05T12:31:12.709Z,8.23
2022-12-05T12:33:17.064Z,8.00
2022-12-05T12:35:30.605Z,6.70
2022-12-05T12:37:35.479Z,7.20
2022-12-05T12:40:01.094Z,7.85
2022-12-05T12:42:25.230Z,8.05
2022-12-05T12:44:48.530Z,8.13
2022-12-05T12:46:56.299Z,7.72
2022-12-05T12:49:13.878Z,8.63
2022-12-05T12:51:16.080Z,8.57
2022-12-05T12:53:26.752Z,8.48
2022-12-05T12:55:40.575Z,8.82
2022-12-05T12:57:58.458Z,8.05
2022-12-05T13:00:31.765Z,9.48
2022-12-05T13:02:43.969Z,9.98
2022-12-05T13:04:59.545Z,9.57
2022-12-05T13:07:05.717Z,9.93
2022-12-05T13:09:23.597Z,11.02
2022-12-05T13:11:25.523Z,10.38
2022-12-05T13:13:43.589Z,11.00
2022-12-05T13:15:51.384Z,10.80
2022-12-05T13:17:54.348Z,10.38
2022-12-05T13:19:57.850Z,10.53
2022-12-05T13:21:59.605Z,10.10
2022-12-05T13:24:03.565Z,10.77
2022-12-05T13:26:10.324Z,10.38
2022-12-05T13:28:47.434Z,10.80
2022-12-05T13:31:01.444Z,10.15
2022-12-05T13:33:07.550Z,10.60
2022-12-05T13:35:48.029Z,11.57
2022-12-05T13:38:07.989Z,11.20
2022-12-05T13:40:48.048Z,11.00
2022-12-05T13:43:00.105Z,10.85
2022-12-05T13:45:04.891Z,14.35
2022-12-05T13:47:08.053Z,10.95
2022-12-05T13:49:20.696Z,12.95
2022-12-05T13:51:33.359Z,12.05
2022-12-05T13:53:39.999Z,12.38
2022-12-05T13:55:56.525Z,12.82
2022-12-05T13:57:59.977Z,12.80
2022-12-05T14:00:07.799Z,12.25
2022-12-05T14:02:41.694Z,12.35
2022-12-05T14:04:50.730Z,10.55
2022-12-05T14:06:58.867Z,12.32
2022-12-05T14:09:01.536Z,11.88
2022-12-05T14:11:09.647Z,12.40
2022-12-05T14:13:18.079Z,12.20
2022-12-05T14:15:34.634Z,12.63
2022-12-05T14:17:43.426Z,12.88
2022-12-05T14:20:10.899Z,12.25
2022-12-05T14:22:43.412Z,12.90
2022-12-05T14:24:50.838Z,12.65
2022-12-05T14:27:16.994Z,13.40
2022-12-05T14:29:51.830Z,12.80
2022-12-05T14:32:05.049Z,13.15
2022-12-05T14:34:15.723Z,13.50
2022-12-05T14:36:21.488Z,13.60
2022-12-05T14:38:31.360Z,12.57
2022-12-05T14:40:44.205Z,10.98
2022-12-05T14:43:04.881Z,12.57
2022-12-05T14:45:25.597Z,13.07
2022-12-05T14:47:30.111Z,13.20
2022-12-05T14:49:53.410Z,13.18
2022-12-05T14:51:58.266Z,13.05
2022-12-05T14:54:12.632Z,13.73
2022-12-05T14:56:25.861Z,14.02
2022-12-05T14:58:37.354Z,11.57
2022-12-05T15:00:41.558Z,13.35
2022-12-05T15:02:47.224Z,13.98
2022-12-05T15:05:02.566Z,14.52
2022-12-05T15:07:18.480Z,13.82
2022-12-05T15:09:38.564Z,13.55
2022-12-05T15:11:40.431Z,13.82
2022-12-05T15:13:42.118Z,13.25
2022-12-05T15:15:48.221Z,14.73
2022-12-05T15:17:53.474Z,14.30
2022-12-05T15:20:05.434Z,14.00
2022-12-05T15:22:07.469Z,14.00
2022-12-05T15:24:17.344Z,14.13
2022-12-05T15:26:49.645Z,14.20
2022-12-05T15:28:59.404Z,12.45
2022-12-05T15:31:01.119Z,12.68
2022-12-05T15:33:03.103Z,14.65
2022-12-05T15:35:14.194Z,13.48
2022-12-05T15:37:19.999Z,13.40
2022-12-05T15:39:25.840Z,14.45
2022-12-05T15:41:28.054Z,14.70
2022-12-05T15:43:33.996Z,14.48
2022-12-05T15:45:35.807Z,14.20
2022-12-05T15:47:37.779Z,13.05
2022-12-05T15:49:39.375Z,13.48
2022-12-05T15:51:41.301Z,14.52
2022-12-05T15:53:52.989Z,13.43
2022-12-05T15:56:38.349Z,14.77
2022-12-05T15:58:42.327Z,12.65
2022-12-05T16:00:46.497Z,14.15
2022-12-05T16:02:51.436Z,13.80
2022-12-05T16:04:54.375Z,13.48
2022-12-05T16:06:56.838Z,14.75
2022-12-05T16:08:59.581Z,14.25
2022-12-05T16:11:08.717Z,14.38
2022-12-05T16:13:15.951Z,13.40
2022-12-05T16:15:26.249Z,15.75
2022-12-05T16:17:30.831Z,15.85
2022-12-05T16:19:32.815Z,15.88
2022-12-05T16:21:39.281Z,14.13
2022-12-05T16:23:43.443Z,15.02
2022-12-05T16:28:03.067Z,15.10
2022-12-05T16:30:22.473Z,15.05
2022-12-05T16:32:25.131Z,15.13
2022-12-05T16:34:28.142Z,16.20
2022-12-05T16:36:30.245Z,14.23
2022-12-05T16:38:31.989Z,15.50
2022-12-05T16:40:33.722Z,15.02
2022-12-05T16:42:37.592Z,14.80
2022-12-05T16:46:50.561Z,13.30
2022-12-05T16:49:21.662Z,13.75
2022-12-05T16:51:27.709Z,13.05
2022-12-05T16:53:32.077Z,12.60
2022-12-05T16:55:37.341Z,13.93
2022-12-05T16:57:39.050Z,14.43
2022-12-05T16:59:44.127Z,12.52
2022-12-05T17:01:45.794Z,13.82
2022-12-05T17:03:48.217Z,12.68
2022-12-05T17:05:50.803Z,13.30
2022-12-05T17:07:52.478Z,13.60
2022-12-05T17:09:54.097Z,13.48
2022-12-05T17:12:02.969Z,13.20
2022-12-05T17:14:04.618Z,13.95
2022-12-05T17:16:06.507Z,13.85
2022-12-05T17:18:31.573Z,14.32
2022-12-05T17:20:34.269Z,13.55
2022-12-05T17:22:35.951Z,14.15
2022-12-05T17:24:37.843Z,13.55
2022-12-05T17:26:39.470Z,15.70
2022-12-05T17:28:41.331Z,16.23
2022-12-05T17:30:43.074Z,14.43
2022-12-05T17:32:44.798Z,14.57
2022-12-05T17:34:46.430Z,13.60
2022-12-05T17:36:48.332Z,14.15
2022-12-05T17:38:49.998Z,14.07
2022-12-05T17:40:51.683Z,12.77
2022-12-05T17:42:53.339Z,12.50
2022-12-05T17:44:54.970Z,12.88
2022-12-05T17:46:56.648Z,14.02
2022-12-05T17:48:58.340Z,13.40
2022-12-05T17:51:00.756Z,14.30
2022-12-05T17:53:07.346Z,14.18
2022-12-05T17:55:17.358Z,14.77
2022-12-05T17:57:18.949Z,13.70
2022-12-05T17:59:20.621Z,14.32
2022-12-05T18:01:22.289Z,14.07
2022-12-05T18:03:24.078Z,12.65
2022-12-05T18:05:25.914Z,13.50
2022-12-05T18:07:27.662Z,13.13
2022-12-05T18:09:29.354Z,13.13
2022-12-05T18:11:31.031Z,12.30
2022-12-05T18:13:33.623Z,11.85
2022-12-05T18:15:40.917Z,12.90
2022-12-05T18:17:44.485Z,11.73
2022-12-05T18:19:46.087Z,11.85
2022-12-05T18:21:47.726Z,10.70
2022-12-05T18:23:49.440Z,11.10
2022-12-05T18:25:59.149Z,10.77
2022-12-05T18:28:00.839Z,11.48
2022-12-05T18:30:03.752Z,9.75
2022-12-05T18:32:05.691Z,10.57
2022-12-05T18:34:07.787Z,11.35
2022-12-05T18:36:11.716Z,10.10
2022-12-05T18:40:14.867Z,10.85
2022-12-05T18:42:16.527Z,10.30
2022-12-05T18:44:18.249Z,11.25
2022-12-05T18:46:19.982Z,10.65
2022-12-05T18:48:38.756Z,10.98
2022-12-05T18:50:42.489Z,11.65
2022-12-05T18:52:44.030Z,10.88
2022-12-05T18:54:53.841Z,10.90
2022-12-05T18:56:59.448Z,10.30
2022-12-05T18:59:03.951Z,10.40
2022-12-05T19:01:10.664Z,10.88
2022-12-05T19:03:12.313Z,10.32
2022-12-05T19:05:14.028Z,11.20
2022-12-05T19:07:15.656Z,11.23
2022-12-05T19:09:19.196Z,10.70
2022-12-05T19:11:20.902Z,10.05
2022-12-05T19:13:22.605Z,9.95
2022-12-05T19:15:24.838Z,9.48
2022-12-05T19:17:26.418Z,10.45
2022-12-05T19:19:28.491Z,10.68
2022-12-05T19:21:31.425Z,9.60
2022-12-05T19:23:34.610Z,9.03
2022-12-05T19:25:36.211Z,10.73
2022-12-05T19:27:38.089Z,9.38
2022-12-05T19:29:39.723Z,9.68
2022-12-05T19:31:41.951Z,9.77
2022-12-05T19:33:45.470Z,9.60
2022-12-05T19:35:47.180Z,9.57
2022-12-05T19:37:48.864Z,9.32
2022-12-05T19:39:52.013Z,10.13
2022-12-05T19:41:55.292Z,9.63
2022-12-05T19:44:01.853Z,9.82
2022-12-05T19:46:21.639Z,9.82
2022-12-05T19:48:24.083Z,9.82
2022-12-05T19:50:25.849Z,10.40
2022-12-05T19:52:27.545Z,9.75
2022-12-05T19:54:29.138Z,9.63
2022-12-05T19:56:32.067Z,10.48
2022-12-05T19:58:35.375Z,9.45
2022-12-05T20:00:36.983Z,9.35
2022-12-05T20:02:40.431Z,9.30
2022-12-05T20:04:43.386Z,8.80
2022-12-05T20:06:47.374Z,8.95
2022-12-05T20:08:51.180Z,9.82
2022-12-05T20:10:53.351Z,9.50
2022-12-05T20:12:55.224Z,8.98
2022-12-05T20:14:57.692Z,8.82
2022-12-05T20:16:59.407Z,8.57
2022-12-05T20:19:01.287Z,7.13
2022-12-05T20:21:04.682Z,8.15
2022-12-05T20:23:06.395Z,8.30
2022-12-05T20:25:08.514Z,8.20
2022-12-05T20:27:10.137Z,8.77
2022-12-05T20:29:11.917Z,8.23
2022-12-05T20:31:22.046Z,9.02
2022-12-05T20:33:23.721Z,8.68
2022-12-05T20:35:25.373Z,7.88
2022-12-05T20:37:29.929Z,7.88
2022-12-05T20:39:34.148Z,7.85
2022-12-05T20:41:35.987Z,8.18
2022-12-05T20:43:38.242Z,8.65
2022-12-05T20:45:39.853Z,7.97
2022-12-05T20:47:41.500Z,8.20
2022-12-05T20:49:43.231Z,8.65
2022-12-05T20:51:46.210Z,8.18
2022-12-05T20:53:48.657Z,9.23
2022-12-05T20:55:50.330Z,9.55
2022-12-05T20:57:51.994Z,10.73
2022-12-05T20:59:53.554Z,9.57
2022-12-05T21:01:55.316Z,9.57
2022-12-05T21:03:57.197Z,8.23
2022-12-05T21:05:58.989Z,8.02
2022-12-05T21:08:00.630Z,8.40
2022-12-05T21:10:07.930Z,8.52
2022-12-05T21:12:10.123Z,7.65
2022-12-05T21:14:12.045Z,7.65
2022-12-05T21:16:17.000Z,8.15
2022-12-05T21:18:18.604Z,7.57
2022-12-05T21:20:20.238Z,6.90
2022-12-05T21:22:21.984Z,7.85
2022-12-05T21:24:23.724Z,7.47
2022-12-05T21:26:27.228Z,8.05
2022-12-05T21:28:31.509Z,7.00
2022-12-05T21:30:34.556Z,7.72
2022-12-05T21:32:36.174Z,7.22
2022-12-05T21:34:38.005Z,7.43
2022-12-05T21:36:39.689Z,7.45
2022-12-05T21:38:41.460Z,7.30
2022-12-05T21:40:43.013Z,7.68
2022-12-05T21:42:44.660Z,7.55
2022-12-05T21:44:46.381Z,6.90
2022-12-05T21:46:48.973Z,7.20
2022-12-05T21:48:50.821Z,7.15
2022-12-05T21:50:52.710Z,6.90
2022-12-05T21:52:54.321Z,6.82
2022-12-05T21:54:55.928Z,6.65
2022-12-05T21:56:57.563Z,6.45
2022-12-05T21:58:59.239Z,6.05
2022-12-05T22:01:01.024Z,5.65
2022-12-05T22:03:02.892Z,6.40
2022-12-05T22:05:05.472Z,6.03
2022-12-05T22:07:07.168Z,5.97
2022-12-05T22:09:08.786Z,6.05
2022-12-05T22:11:13.280Z,5.75
2022-12-05T22:13:15.182Z,7.28
2022-12-05T22:15:16.911Z,7.55
2022-12-05T22:17:18.613Z,6.45
2022-12-05T22:19:20.340Z,6.57
2022-12-05T22:21:22.081Z,6.10
2022-12-05T22:23:24.380Z,7.13
2022-12-05T22:25:26.018Z,6.07
2022-12-05T22:27:30.072Z,7.22
2022-12-05T22:29:31.746Z,6.35
2022-12-05T22:31:33.642Z,6.13
2022-12-05T22:33:36.728Z,6.70
2022-12-05T22:35:38.490Z,6.75
2022-12-05T22:37:40.169Z,6.63
2022-12-05T22:39:41.779Z,6.60
2022-12-05T22:41:43.367Z,6.32
2022-12-05T22:43:46.751Z,6.15
2022-12-05T22:45:48.623Z,6.07
2022-12-05T22:47:50.234Z,6.97
2022-12-05T22:49:52.120Z,6.35
2022-12-05T22:51:53.750Z,5.65
2022-12-05T22:53:55.940Z,6.47
2022-12-05T22:56:04.748Z,6.65
2022-12-05T22:58:06.335Z,6.55
2022-12-05T23:00:08.635Z,6.45
2022-12-05T23:02:10.249Z,7.20
2022-12-05T23:04:12.004Z,5.75
2022-12-05T23:06:15.832Z,6.18
2022-12-05T23:08:17.760Z,7.00
2022-12-05T23:10:19.409Z,6.00
2022-12-05T23:12:20.971Z,6.60
2022-12-05T23:14:22.588Z,5.65
2022-12-05T23:16:26.422Z,5.88
2022-12-05T23:20:29.700Z,6.78
2022-12-05T23:22:31.562Z,6.38
2022-12-05T23:24:33.261Z,5.88
2022-12-05T23:26:37.997Z,6.10
2022-12-05T23:28:39.655Z,5.88
2022-12-05T23:30:41.276Z,6.07
2022-12-05T23:32:42.903Z,6.07
2022-12-05T23:34:44.532Z,6.85
2022-12-05T23:36:46.233Z,6.93
2022-12-05T23:38:48.154Z,6.15
2022-12-05T23:41:13.578Z,7.53
2022-12-05T23:43:15.227Z,5.95
2022-12-05T23:45:16.969Z,6.57
2022-12-05T23:47:18.946Z,6.47
2022-12-05T23:49:20.785Z,6.72
2022-12-05T23:51:27.751Z,6.63
2022-12-05T23:53:30.852Z,6.20
2022-12-05T23:55:34.446Z,6.03
2022-12-05T23:57:36.183Z,5.72
2022-12-05T23:59:37.839Z,7.18
